createdAt,value
2016-04-20T08:26:54.031Z,9996
2016-04-20T08:27:04.031Z,10092
2016-04-20T08:27:14.016Z,10062
2016-04-20T08:27:24.016Z,10188
2016-04-20T08:27:34.031Z,10146
2016-04-20T08:27:44.031Z,9958
2016-04-20T08:27:54.034Z,10022
2016-04-20T08:28:04.034Z,9856
2016-04-20T08:28:14.034Z,9886
2016-04-20T08:28:24.034Z,9796
2016-04-20T08:28:34.034Z,9770
2016-04-20T08:28:44.034Z,9792
2016-04-20T08:28:54.036Z,9898
2016-04-20T08:29:04.052Z,9986
2016-04-20T08:29:14.068Z,10128
2016-04-20T08:29:24.052Z,10314
2016-04-20T08:29:34.052Z,10414
2016-04-20T08:29:44.052Z,10498
2016-04-20T08:29:54.055Z,10532
2016-04-20T08:30:04.055Z,10716
2016-04-20T08:30:14.071Z,10926
2016-04-20T08:30:24.055Z,10832
2016-04-20T08:30:34.055Z,10816
2016-04-20T08:30:44.071Z,10832
2016-04-20T08:30:54.074Z,10820
2016-04-20T08:31:04.074Z,10792
2016-04-20T08:31:14.074Z,10744
2016-04-20T08:31:24.074Z,10726
2016-04-20T08:31:34.074Z,10812
2016-04-20T08:31:44.074Z,10532
2016-04-20T08:31:54.076Z,10340
2016-04-20T08:32:04.076Z,10202
2016-04-20T08:32:14.091Z,10076
2016-04-20T08:32:24.091Z,9912
2016-04-20T08:32:34.091Z,9782
2016-04-20T08:32:44.091Z,9766
2016-04-20T08:32:54.094Z,9642
2016-04-20T08:33:04.094Z,9362
2016-04-20T08:33:14.094Z,9212
2016-04-20T08:33:24.094Z,9122
2016-04-20T08:33:39.313Z,9054
2016-04-20T08:33:45.969Z,8964
2016-04-20T08:33:55.925Z,8928
2016-04-20T08:34:05.925Z,8876
2016-04-20T08:34:15.925Z,8846
2016-04-20T08:34:25.925Z,8862
2016-04-20T08:34:35.925Z,8906
2016-04-20T08:34:45.925Z,8978
2016-04-20T08:34:55.927Z,9072
2016-04-20T08:35:06.006Z,9200
2016-04-20T08:35:15.927Z,9324
2016-04-20T08:35:25.943Z,9434
2016-04-20T08:35:35.943Z,9536
2016-04-20T08:35:45.943Z,9662
2016-04-20T08:35:55.946Z,9796
2016-04-20T08:36:05.993Z,9876
2016-04-20T08:36:15.946Z,9890
2016-04-20T08:36:25.946Z,9894
2016-04-20T08:36:35.946Z,9882
2016-04-20T08:36:45.962Z,9848
2016-04-20T08:36:55.965Z,9800
2016-04-20T08:37:05.965Z,9740
2016-04-20T08:37:15.965Z,9718
2016-04-20T08:37:25.965Z,9770
2016-04-20T08:37:35.965Z,9868
2016-04-20T08:37:45.965Z,9986
2016-04-20T08:37:55.967Z,10126
2016-04-20T08:38:05.967Z,10262
2016-04-20T08:38:15.982Z,10372
2016-04-20T08:38:25.967Z,10552
2016-04-20T08:38:35.982Z,10836
2016-04-20T08:38:45.982Z,11008
2016-04-20T08:38:55.985Z,11096
2016-04-20T08:39:05.985Z,11228
2016-04-20T08:39:15.985Z,11372
2016-04-20T08:39:25.985Z,11354
2016-04-20T08:39:36.017Z,11414
2016-04-20T08:39:46.001Z,11526
2016-04-20T08:39:56.004Z,11690
2016-04-20T08:40:05.988Z,11844
2016-04-20T08:40:16.004Z,11938
2016-04-20T08:40:26.004Z,11976
2016-04-20T08:40:36.004Z,12002
2016-04-20T08:40:46.004Z,12068
2016-04-20T08:40:56.007Z,12174
2016-04-20T08:41:06.007Z,12258
2016-04-20T08:41:16.007Z,12270
2016-04-20T08:41:26.007Z,12222
2016-04-20T08:41:36.007Z,12130
2016-04-20T08:41:46.023Z,12006
2016-04-20T08:41:56.025Z,11872
2016-04-20T08:42:06.025Z,11812
2016-04-20T08:42:16.025Z,11752
2016-04-20T08:42:26.134Z,11688
2016-04-20T08:42:36.025Z,11612
2016-04-20T08:42:46.025Z,11558
2016-04-20T08:42:56.028Z,11546
2016-04-20T08:43:06.028Z,11526
2016-04-20T08:43:16.043Z,11478
2016-04-20T08:43:26.043Z,11442
2016-04-20T08:43:36.043Z,11424
2016-04-20T08:43:46.043Z,11424
2016-04-20T08:43:56.046Z,11344
2016-04-20T08:44:06.046Z,11242
2016-04-20T08:44:16.046Z,11156
2016-04-20T08:44:26.062Z,11130
2016-04-20T08:44:36.046Z,11136
2016-04-20T08:44:46.046Z,11102
2016-04-20T08:44:56.065Z,11062
2016-04-20T08:45:06.065Z,11064
2016-04-20T08:45:16.065Z,11132
2016-04-20T08:45:26.065Z,11206
2016-04-20T08:45:36.065Z,11280
2016-04-20T08:45:46.065Z,11406
2016-04-20T08:45:56.067Z,11592
2016-04-20T08:46:06.067Z,11830
2016-04-20T08:46:16.082Z,12092
2016-04-20T08:46:26.082Z,12348
2016-04-20T08:46:36.082Z,12590
2016-04-20T08:46:46.082Z,12804
2016-04-20T08:46:56.085Z,12990
2016-04-20T08:47:06.085Z,13182
2016-04-20T08:47:16.085Z,13376
2016-04-20T08:47:26.085Z,13516
2016-04-20T08:47:36.085Z,13644
2016-04-20T08:47:46.101Z,13734
2016-04-20T08:47:56.104Z,13810
2016-04-20T08:48:06.104Z,13878
2016-04-20T08:48:16.104Z,13980
2016-04-20T08:48:26.104Z,14080
2016-04-20T08:48:36.104Z,14102
2016-04-20T08:48:46.104Z,14078
2016-04-20T08:48:56.107Z,13962
2016-04-20T08:49:06.107Z,13758
2016-04-20T08:49:16.107Z,13564
2016-04-20T08:49:26.123Z,13374
2016-04-20T08:49:36.123Z,13192
2016-04-20T08:49:46.123Z,12990
2016-04-20T08:49:56.125Z,12806
2016-04-20T08:50:06.125Z,12588
2016-04-20T08:50:16.140Z,12398
2016-04-20T08:50:26.125Z,12206
2016-04-20T08:50:36.125Z,12074
2016-04-20T08:50:46.140Z,11968
2016-04-20T08:50:56.143Z,11872
2016-04-20T08:51:06.143Z,11724
2016-04-20T08:51:16.143Z,11548
2016-04-20T08:51:26.143Z,11390
2016-04-20T08:51:36.143Z,11242
2016-04-20T08:51:46.143Z,11104
2016-04-20T08:51:56.145Z,10902
2016-04-20T08:52:06.161Z,10644
2016-04-20T08:52:16.161Z,10344
2016-04-20T08:52:26.161Z,10064
2016-04-20T08:52:36.161Z,9844
2016-04-20T08:52:46.161Z,9670
2016-04-20T08:52:56.164Z,9506
2016-04-20T08:53:06.164Z,9358
2016-04-20T08:53:16.164Z,9264
2016-04-20T08:53:26.164Z,9194
2016-04-20T08:53:36.180Z,9154
2016-04-20T08:53:46.180Z,9110
2016-04-20T08:53:56.183Z,9096
2016-04-20T08:54:06.183Z,9106
2016-04-20T08:54:16.183Z,9126
2016-04-20T08:54:26.183Z,9194
2016-04-20T08:54:36.183Z,9234
2016-04-20T08:54:46.183Z,9258
2016-04-20T08:54:56.247Z,9258
2016-04-20T08:55:06.200Z,9254
2016-04-20T08:55:16.200Z,9218
2016-04-20T08:55:26.200Z,9154
2016-04-20T08:55:36.200Z,9046
2016-04-20T08:55:46.200Z,8922
2016-04-20T08:55:56.203Z,8826
2016-04-20T08:56:06.203Z,8760
2016-04-20T08:56:16.203Z,8716
2016-04-20T08:56:26.219Z,8692
2016-04-20T08:56:36.219Z,8670
2016-04-20T08:56:46.219Z,8646
2016-04-20T08:56:56.221Z,8650
2016-04-20T08:57:06.221Z,8666
2016-04-20T08:57:16.221Z,8688
2016-04-20T08:57:26.221Z,8718
2016-04-20T08:57:36.221Z,8744
2016-04-20T08:57:46.236Z,8770
2016-04-20T08:57:56.225Z,8804
2016-04-20T08:58:06.240Z,8840
2016-04-20T08:58:16.240Z,8858
2016-04-20T08:58:26.240Z,8874
2016-04-20T08:58:36.240Z,8926
2016-04-20T08:58:46.240Z,8988
2016-04-20T08:58:56.242Z,9076
2016-04-20T08:59:06.242Z,9160
2016-04-20T08:59:16.242Z,9234
2016-04-20T08:59:26.242Z,9298
2016-04-20T08:59:36.258Z,9340
2016-04-20T08:59:46.258Z,9390
2016-04-20T08:59:56.261Z,9438
2016-04-20T09:00:06.261Z,9492
2016-04-20T09:00:16.261Z,9546
2016-04-20T09:00:26.261Z,9606
2016-04-20T09:00:36.261Z,9664
2016-04-20T09:00:46.261Z,9736
2016-04-20T09:00:56.264Z,9828
2016-04-20T09:01:06.280Z,9924
2016-04-20T09:01:16.280Z,10030
2016-04-20T09:01:26.280Z,10144
2016-04-20T09:01:36.280Z,10250
2016-04-20T09:01:46.280Z,10352
2016-04-20T09:01:56.282Z,10430
2016-04-20T09:02:06.282Z,10496
2016-04-20T09:02:16.297Z,10590
2016-04-20T09:02:26.297Z,10686
2016-04-20T09:02:36.297Z,10802
2016-04-20T09:02:46.297Z,10954
2016-04-20T09:02:56.300Z,11134
2016-04-20T09:03:06.300Z,11344
2016-04-20T09:03:16.300Z,11610
2016-04-20T09:03:26.300Z,11866
2016-04-20T09:03:36.300Z,12062
2016-04-20T09:03:46.316Z,12236
2016-04-20T09:03:56.318Z,12420
2016-04-20T09:04:06.318Z,12688
2016-04-20T09:04:16.318Z,12992
2016-04-20T09:04:26.318Z,13330
2016-04-20T09:04:36.318Z,13704
2016-04-20T09:04:46.396Z,14046
2016-04-20T09:04:56.321Z,14298
2016-04-20T09:05:06.321Z,14498
2016-04-20T09:05:16.321Z,14750
2016-04-20T09:05:26.337Z,15072
2016-04-20T09:05:36.337Z,15392
2016-04-20T09:05:46.337Z,15666
2016-04-20T09:05:56.339Z,15852
2016-04-20T09:06:06.339Z,15910
2016-04-20T09:06:16.339Z,15938
2016-04-20T09:06:26.339Z,15996
2016-04-20T09:06:36.354Z,16088
2016-04-20T09:06:46.354Z,16320
2016-04-20T09:06:56.358Z,16448
2016-04-20T09:07:06.358Z,16576
2016-04-20T09:07:16.358Z,16608
2016-04-20T09:07:26.358Z,16624
2016-04-20T09:07:36.358Z,16608
2016-04-20T09:07:46.374Z,16528
2016-04-20T09:07:56.360Z,16416
2016-04-20T09:08:06.360Z,16336
2016-04-20T09:08:16.376Z,16304
2016-04-20T09:08:26.376Z,16304
2016-04-20T09:08:36.376Z,16288
2016-04-20T09:08:46.376Z,16256
2016-04-20T09:08:56.379Z,16192
2016-04-20T09:09:06.379Z,16208
2016-04-20T09:09:16.379Z,16320
2016-04-20T09:09:26.394Z,16384
2016-04-20T09:09:36.394Z,16528
2016-04-20T09:09:46.394Z,16688
2016-04-20T09:09:56.397Z,16880
2016-04-20T09:10:06.397Z,16960
2016-04-20T09:10:16.397Z,17040
2016-04-20T09:10:26.397Z,17184
2016-04-20T09:10:36.397Z,17312
2016-04-20T09:10:46.413Z,17344
2016-04-20T09:10:56.416Z,17376
2016-04-20T09:11:06.416Z,17328
2016-04-20T09:11:16.416Z,17152
2016-04-20T09:11:26.416Z,16976
2016-04-20T09:11:36.416Z,16832
2016-04-20T09:11:46.416Z,16672
2016-04-20T09:11:56.418Z,16496
2016-04-20T09:12:06.418Z,16352
2016-04-20T09:12:16.418Z,16208
2016-04-20T09:12:26.434Z,16224
2016-04-20T09:12:36.434Z,16352
2016-04-20T09:12:46.434Z,16576
2016-04-20T09:12:56.437Z,16816
2016-04-20T09:13:06.437Z,17056
2016-04-20T09:13:16.437Z,17200
2016-04-20T09:13:26.437Z,17232
2016-04-20T09:13:36.452Z,17296
2016-04-20T09:13:46.452Z,17312
2016-04-20T09:13:56.455Z,17200
2016-04-20T09:14:06.455Z,17184
2016-04-20T09:14:16.455Z,17120
2016-04-20T09:14:26.455Z,17056
2016-04-20T09:14:36.455Z,16960
2016-04-20T09:14:46.502Z,16816
2016-04-20T09:14:56.457Z,16736
2016-04-20T09:15:06.473Z,16656
2016-04-20T09:15:16.473Z,16608
2016-04-20T09:15:26.473Z,16624
2016-04-20T09:15:36.520Z,16368
2016-04-20T09:15:46.489Z,16124
2016-04-20T09:15:56.476Z,16062
2016-04-20T09:16:06.492Z,15886
2016-04-20T09:16:16.476Z,15920
2016-04-20T09:16:26.476Z,15934
2016-04-20T09:16:36.492Z,15912
2016-04-20T09:16:46.492Z,15864
2016-04-20T09:16:56.494Z,15806
2016-04-20T09:17:06.494Z,15720
2016-04-20T09:17:16.494Z,15566
2016-04-20T09:17:26.494Z,15424
2016-04-20T09:17:36.509Z,15316
2016-04-20T09:17:46.509Z,15176
2016-04-20T09:17:56.512Z,15164
2016-04-20T09:18:06.512Z,15036
2016-04-20T09:18:16.512Z,14956
2016-04-20T09:18:26.512Z,14532
2016-04-20T09:18:36.512Z,14218
2016-04-20T09:18:46.528Z,14044
2016-04-20T09:18:56.531Z,13866
2016-04-20T09:19:06.531Z,13718
2016-04-20T09:19:16.531Z,13604
2016-04-20T09:19:26.531Z,13456
2016-04-20T09:19:36.531Z,13284
2016-04-20T09:19:46.531Z,13098
2016-04-20T09:19:56.565Z,12938
2016-04-20T09:20:06.549Z,12804
2016-04-20T09:20:16.549Z,12688
2016-04-20T09:20:26.549Z,12594
2016-04-20T09:20:36.549Z,12502
2016-04-20T09:20:46.659Z,12428
2016-04-20T09:20:56.551Z,12378
2016-04-20T09:21:06.551Z,12430
2016-04-20T09:21:16.551Z,12262
2016-04-20T09:21:26.567Z,12028
2016-04-20T09:21:36.567Z,11904
2016-04-20T09:21:46.567Z,11820
2016-04-20T09:21:56.576Z,11740
2016-04-20T09:22:06.564Z,11646
2016-04-20T09:22:16.580Z,11550
2016-04-20T09:22:26.678Z,11458
2016-04-20T09:22:36.616Z,11382
2016-04-20T09:22:46.569Z,11342
2016-04-20T09:22:56.588Z,11310
2016-04-20T09:23:06.588Z,11290
2016-04-20T09:23:16.603Z,11270
2016-04-20T09:23:26.588Z,11264
2016-04-20T09:23:36.588Z,11232
2016-04-20T09:23:46.588Z,11188
2016-04-20T09:23:56.591Z,11138
2016-04-20T09:24:06.606Z,11076
2016-04-20T09:24:16.606Z,10966
2016-04-20T09:24:26.606Z,10870
2016-04-20T09:24:36.606Z,10788
2016-04-20T09:24:46.606Z,10698
2016-04-20T09:24:56.608Z,10594
2016-04-20T09:25:06.608Z,10482
2016-04-20T09:25:16.608Z,10388
2016-04-20T09:25:26.608Z,10292
2016-04-20T09:25:36.624Z,10214
2016-04-20T09:25:46.624Z,10146
2016-04-20T09:25:56.627Z,10074
2016-04-20T09:26:06.627Z,9994
2016-04-20T09:26:16.627Z,9898
2016-04-20T09:26:26.627Z,9788
2016-04-20T09:26:36.643Z,9676
2016-04-20T09:26:46.643Z,9560
2016-04-20T09:26:56.645Z,9442
2016-04-20T09:27:06.645Z,9316
2016-04-20T09:27:16.645Z,9176
2016-04-20T09:27:26.645Z,9030
2016-04-20T09:27:36.645Z,8878
2016-04-20T09:27:46.645Z,8718
2016-04-20T09:27:56.663Z,8554
2016-04-20T09:28:06.663Z,8398
2016-04-20T09:28:16.663Z,8246
2016-04-20T09:28:26.663Z,8104
2016-04-20T09:28:36.663Z,7956
2016-04-20T09:28:47.757Z,7804
2016-04-20T09:28:56.682Z,7650
2016-04-20T09:29:06.682Z,7496
2016-04-20T09:29:16.666Z,7350
2016-04-20T09:29:26.682Z,7206
2016-04-20T09:29:36.682Z,7060
2016-04-20T09:29:46.682Z,6924
2016-04-20T09:29:56.685Z,6806
2016-04-20T09:30:06.685Z,6698
2016-04-20T09:30:16.685Z,6590
2016-04-20T09:30:26.685Z,6472
2016-04-20T09:30:36.685Z,6358
2016-04-20T09:30:46.700Z,6244
2016-04-20T09:30:56.702Z,6120
2016-04-20T09:31:06.702Z,6012
2016-04-20T09:31:16.702Z,5930
2016-04-20T09:31:26.702Z,5912
2016-04-20T09:31:36.702Z,5850
2016-04-20T09:31:46.702Z,5752
2016-04-20T09:31:56.721Z,5750
2016-04-20T09:32:06.721Z,5712
2016-04-20T09:32:16.721Z,5526
2016-04-20T09:32:26.721Z,5248
2016-04-20T09:32:36.721Z,5066
2016-04-20T09:32:46.721Z,4970
2016-04-20T09:32:56.723Z,5006
2016-04-20T09:33:06.739Z,4960
2016-04-20T09:33:16.723Z,5006
2016-04-20T09:33:26.739Z,5188
2016-04-20T09:33:36.739Z,5214
2016-04-20T09:33:46.739Z,5150
2016-04-20T09:33:56.742Z,5130
2016-04-20T09:34:06.742Z,5118
2016-04-20T09:34:16.742Z,5100
2016-04-20T09:34:26.742Z,5094
2016-04-20T09:34:36.757Z,5064
2016-04-20T09:34:46.804Z,5070
2016-04-20T09:34:56.792Z,5070
2016-04-20T09:35:06.760Z,5064
2016-04-20T09:35:16.760Z,5062
2016-04-20T09:35:26.760Z,5064
2016-04-20T09:35:36.760Z,5062
2016-04-20T09:35:46.760Z,5054
2016-04-20T09:35:56.762Z,5054
2016-04-20T09:36:06.778Z,5058
2016-04-20T09:36:16.778Z,5058
2016-04-20T09:36:26.778Z,5052
2016-04-20T09:36:36.794Z,5052
2016-04-20T09:36:46.778Z,5054
2016-04-20T09:36:56.797Z,5066
2016-04-20T09:37:06.797Z,5058
2016-04-20T09:37:16.781Z,5070
2016-04-20T09:37:26.797Z,5082
2016-04-20T09:37:36.797Z,5090
2016-04-20T09:37:46.797Z,5100
2016-04-20T09:37:56.799Z,5100
2016-04-20T09:38:06.799Z,5116
2016-04-20T09:38:16.799Z,5112
2016-04-20T09:38:26.799Z,5102
2016-04-20T09:38:36.814Z,5110
2016-04-20T09:38:46.799Z,5106
2016-04-20T09:38:56.803Z,5116
2016-04-20T09:39:06.818Z,5120
2016-04-20T09:39:16.818Z,5126
2016-04-20T09:39:26.818Z,5134
2016-04-20T09:39:36.818Z,5158
2016-04-20T09:39:46.818Z,5168
2016-04-20T09:39:56.820Z,5186
2016-04-20T09:40:06.820Z,5196
2016-04-20T09:40:16.820Z,5206
2016-04-20T09:40:26.820Z,5240
2016-04-20T09:40:36.836Z,5254
2016-04-20T09:40:46.836Z,5286
2016-04-20T09:40:56.839Z,5306
2016-04-20T09:41:06.839Z,5332
2016-04-20T09:41:16.839Z,5348
2016-04-20T09:41:26.839Z,5378
2016-04-20T09:41:36.839Z,5408
2016-04-20T09:41:46.839Z,5424
2016-04-20T09:41:56.857Z,5454
2016-04-20T09:42:06.857Z,5472
2016-04-20T09:42:16.857Z,5504
2016-04-20T09:42:26.857Z,5524
2016-04-20T09:42:36.857Z,5542
2016-04-20T09:42:46.857Z,5568
2016-04-20T09:42:56.859Z,5596
2016-04-20T09:43:06.859Z,5610
2016-04-20T09:43:16.875Z,5642
2016-04-20T09:43:26.875Z,5668
2016-04-20T09:43:36.875Z,5698
2016-04-20T09:43:46.875Z,5730
2016-04-20T09:43:56.878Z,5774
2016-04-20T09:44:06.878Z,5822
2016-04-20T09:44:16.878Z,5878
2016-04-20T09:44:26.878Z,5936
2016-04-20T09:44:36.878Z,6018
2016-04-20T09:44:46.878Z,6092
2016-04-20T09:44:56.896Z,6196
2016-04-20T09:45:06.896Z,6276
2016-04-20T09:45:16.896Z,6384
2016-04-20T09:45:26.896Z,6488
2016-04-20T09:45:36.896Z,6592
2016-04-20T09:45:46.896Z,6722
2016-04-20T09:45:56.914Z,6844
2016-04-20T09:46:06.899Z,6954
2016-04-20T09:46:16.914Z,7040
2016-04-20T09:46:26.914Z,7172
2016-04-20T09:46:36.914Z,7310
2016-04-20T09:46:46.914Z,7462
2016-04-20T09:46:56.917Z,7628
2016-04-20T09:47:06.917Z,7780
2016-04-20T09:47:16.917Z,7960
2016-04-20T09:47:26.917Z,8138
2016-04-20T09:47:36.933Z,8332
2016-04-20T09:47:46.933Z,8526
2016-04-20T09:47:56.936Z,8734
2016-04-20T09:48:06.936Z,8974
2016-04-20T09:48:16.936Z,9232
2016-04-20T09:48:26.936Z,9492
2016-04-20T09:48:36.936Z,9732
2016-04-20T09:48:46.936Z,9980
2016-04-20T09:48:56.939Z,10188
2016-04-20T09:49:06.939Z,10378
2016-04-20T09:49:16.939Z,10590
2016-04-20T09:49:26.955Z,10808
2016-04-20T09:49:36.955Z,11000
2016-04-20T09:49:46.955Z,11206
2016-04-20T09:49:56.972Z,11468
2016-04-20T09:50:06.957Z,11684
2016-04-20T09:50:16.957Z,11922
2016-04-20T09:50:26.957Z,12170
2016-04-20T09:50:36.957Z,12448
2016-04-20T09:50:46.957Z,12728
2016-04-20T09:50:56.991Z,12934
2016-04-20T09:51:06.975Z,13116
2016-04-20T09:51:16.975Z,13134
2016-04-20T09:51:26.975Z,13440
2016-04-20T09:51:36.975Z,13678
2016-04-20T09:51:46.975Z,13822
2016-04-20T09:51:56.977Z,13992
2016-04-20T09:52:06.977Z,14050
2016-04-20T09:52:16.993Z,14050
2016-04-20T09:52:26.993Z,14046
2016-04-20T09:52:36.993Z,14076
2016-04-20T09:52:46.993Z,14058
2016-04-20T09:52:56.996Z,14018
2016-04-20T09:53:06.996Z,13988
2016-04-20T09:53:16.996Z,14006
2016-04-20T09:53:26.996Z,14016
2016-04-20T09:53:37.011Z,14012
2016-04-20T09:53:46.996Z,13974
2016-04-20T09:53:57.014Z,13954
2016-04-20T09:54:07.014Z,13928
2016-04-20T09:54:17.014Z,13966
2016-04-20T09:54:27.014Z,13948
2016-04-20T09:54:37.014Z,13872
2016-04-20T09:54:47.014Z,13714
2016-04-20T09:54:57.017Z,13554
2016-04-20T09:55:07.033Z,13372
2016-04-20T09:55:17.033Z,13242
2016-04-20T09:55:27.033Z,13156
2016-04-20T09:55:37.033Z,12988
2016-04-20T09:55:47.033Z,12860
2016-04-20T09:55:57.035Z,12742
2016-04-20T09:56:07.035Z,12576
2016-04-20T09:56:17.035Z,12388
2016-04-20T09:56:27.035Z,12176
2016-04-20T09:56:37.035Z,11948
2016-04-20T09:56:47.051Z,11722
2016-04-20T09:56:57.054Z,11476
2016-04-20T09:57:07.054Z,11232
2016-04-20T09:57:17.054Z,10906
2016-04-20T09:57:27.054Z,10510
2016-04-20T09:57:37.054Z,10052
2016-04-20T09:57:47.069Z,9604
2016-04-20T09:57:57.072Z,9166
2016-04-20T09:58:07.072Z,8734
2016-04-20T09:58:17.072Z,8362
2016-04-20T09:58:27.072Z,8070
2016-04-20T09:58:37.072Z,7840
2016-04-20T09:58:47.072Z,7636
2016-04-20T09:58:57.074Z,7474
2016-04-20T09:59:07.074Z,7364
2016-04-20T09:59:17.074Z,7280
2016-04-20T09:59:27.090Z,7200
2016-04-20T09:59:37.090Z,7136
2016-04-20T09:59:47.090Z,7080
2016-04-20T09:59:57.093Z,7034
2016-04-20T10:00:07.093Z,6984
2016-04-20T10:00:17.093Z,6942
2016-04-20T10:00:27.093Z,6898
2016-04-20T10:00:37.093Z,6880
2016-04-20T10:00:47.109Z,6874
2016-04-20T10:00:57.095Z,6858
2016-04-20T10:01:07.111Z,6868
2016-04-20T10:01:17.111Z,6892
2016-04-20T10:01:27.111Z,6926
2016-04-20T10:01:37.111Z,6938
2016-04-20T10:01:47.111Z,6946
2016-04-20T10:01:57.114Z,6942
2016-04-20T10:02:07.114Z,6950
2016-04-20T10:02:17.114Z,6948
2016-04-20T10:02:27.129Z,6948
2016-04-20T10:02:37.129Z,6926
2016-04-20T10:02:47.129Z,6886
2016-04-20T10:02:57.132Z,6832
2016-04-20T10:03:07.132Z,6808
2016-04-20T10:03:17.148Z,6804
2016-04-20T10:03:27.132Z,6804
2016-04-20T10:03:37.132Z,6748
2016-04-20T10:03:47.132Z,6716
2016-04-20T10:03:57.150Z,6810
2016-04-20T10:04:07.150Z,6978
2016-04-20T10:04:17.150Z,6898
2016-04-20T10:04:27.150Z,7002
2016-04-20T10:04:37.150Z,6916
2016-04-20T10:04:47.150Z,6874
2016-04-20T10:04:57.168Z,6920
2016-04-20T10:05:07.153Z,6794
2016-04-20T10:05:17.168Z,6714
2016-04-20T10:05:27.168Z,6754
2016-04-20T10:05:37.168Z,6738
2016-04-20T10:05:47.168Z,6662
2016-04-20T10:05:57.171Z,6568
2016-04-20T10:06:07.187Z,6430
2016-04-20T10:06:17.171Z,6256
2016-04-20T10:06:27.171Z,5682
2016-04-20T10:06:37.187Z,5860
2016-04-20T10:06:47.187Z,5672
2016-04-20T10:06:57.189Z,5376
2016-04-20T10:07:07.189Z,5240
2016-04-20T10:07:17.189Z,5134
2016-04-20T10:07:27.189Z,5028
2016-04-20T10:07:37.189Z,4946
2016-04-20T10:07:47.205Z,4876
2016-04-20T10:07:57.208Z,4820
2016-04-20T10:08:07.208Z,4792
2016-04-20T10:08:17.208Z,4802
2016-04-20T10:08:27.208Z,4862
2016-04-20T10:08:37.208Z,4956
2016-04-20T10:08:47.208Z,5064
2016-04-20T10:08:57.211Z,5004
2016-04-20T10:09:07.211Z,4916
2016-04-20T10:09:17.211Z,4934
2016-04-20T10:09:27.226Z,5030
2016-04-20T10:09:37.226Z,5104
2016-04-20T10:09:47.226Z,5008
2016-04-20T10:09:57.229Z,4956
2016-04-20T10:10:07.245Z,4760
2016-04-20T10:10:17.229Z,4522
2016-04-20T10:10:27.229Z,4504
2016-04-20T10:10:37.245Z,4716
2016-04-20T10:10:47.229Z,4942
2016-04-20T10:10:57.232Z,5036
2016-04-20T10:11:07.248Z,5042
2016-04-20T10:11:17.248Z,5034
2016-04-20T10:11:27.295Z,5030
2016-04-20T10:11:37.264Z,5026
2016-04-20T10:11:47.248Z,5018
2016-04-20T10:11:57.250Z,5020
2016-04-20T10:12:07.250Z,5022
2016-04-20T10:12:17.266Z,5022
2016-04-20T10:12:27.266Z,5036
2016-04-20T10:12:37.266Z,5024
2016-04-20T10:12:47.266Z,4990
2016-04-20T10:12:57.269Z,4928
2016-04-20T10:13:07.269Z,4756
2016-04-20T10:13:17.269Z,4802
2016-04-20T10:13:27.269Z,4610
2016-04-20T10:13:37.269Z,4546
2016-04-20T10:13:47.269Z,4660
2016-04-20T10:13:57.272Z,4946
2016-04-20T10:14:07.287Z,4928
2016-04-20T10:14:17.287Z,4942
2016-04-20T10:14:27.287Z,5000
2016-04-20T10:14:37.287Z,5026
2016-04-20T10:14:47.303Z,5020
2016-04-20T10:14:57.290Z,5004
2016-04-20T10:15:07.306Z,5018
2016-04-20T10:15:17.306Z,5028
2016-04-20T10:15:27.306Z,5034
2016-04-20T10:15:37.306Z,5036
2016-04-20T10:15:47.306Z,5036
2016-04-20T10:15:57.308Z,5038
2016-04-20T10:16:07.308Z,5034
2016-04-20T10:16:17.308Z,5042
2016-04-20T10:16:27.308Z,5034
2016-04-20T10:16:37.308Z,5042
2016-04-20T10:16:47.323Z,5036
2016-04-20T10:16:57.326Z,5040
2016-04-20T10:17:07.342Z,5052
2016-04-20T10:17:17.326Z,5040
2016-04-20T10:17:27.326Z,5050
2016-04-20T10:17:37.342Z,5044
2016-04-20T10:17:47.342Z,5034
2016-04-20T10:17:57.345Z,5036
2016-04-20T10:18:07.345Z,5036
2016-04-20T10:18:17.345Z,5042
2016-04-20T10:18:27.345Z,5036
2016-04-20T10:18:37.345Z,5046
2016-04-20T10:18:47.376Z,5060
2016-04-20T10:18:57.363Z,5086
2016-04-20T10:19:07.347Z,5130
2016-04-20T10:19:17.363Z,5178
2016-04-20T10:19:27.363Z,5212
2016-04-20T10:19:37.363Z,5228
2016-04-20T10:19:47.363Z,5234
2016-04-20T10:19:57.381Z,5208
2016-04-20T10:20:07.381Z,5178
2016-04-20T10:20:17.366Z,5130
2016-04-20T10:20:27.366Z,5094
2016-04-20T10:20:37.366Z,5060
2016-04-20T10:20:47.366Z,5044
2016-04-20T10:20:57.369Z,5048
2016-04-20T10:21:07.369Z,5048
2016-04-20T10:21:17.369Z,5056
2016-04-20T10:21:27.384Z,5066
2016-04-20T10:21:37.384Z,5082
2016-04-20T10:21:47.384Z,5090
2016-04-20T10:21:57.386Z,5096
2016-04-20T10:22:07.386Z,5094
2016-04-20T10:22:17.386Z,5096
2016-04-20T10:22:27.402Z,5100
2016-04-20T10:22:37.386Z,5094
2016-04-20T10:22:47.402Z,5108
2016-04-20T10:22:57.389Z,5110
2016-04-20T10:23:07.405Z,5078
2016-04-20T10:23:17.405Z,5010
2016-04-20T10:23:27.405Z,4962
2016-04-20T10:23:37.405Z,4946
2016-04-20T10:23:47.405Z,4840
2016-04-20T10:23:57.408Z,4780
2016-04-20T10:24:07.424Z,4856
2016-04-20T10:24:17.424Z,4988
2016-04-20T10:24:27.424Z,4740
2016-04-20T10:24:37.424Z,4570
2016-04-20T10:24:47.424Z,4530
2016-04-20T10:24:57.426Z,4524
2016-04-20T10:25:07.426Z,4530
2016-04-20T10:25:17.426Z,4550
2016-04-20T10:25:27.426Z,4576
2016-04-20T10:25:37.441Z,4606
2016-04-20T10:25:47.426Z,4640
2016-04-20T10:25:57.444Z,4664
2016-04-20T10:26:07.444Z,4702
2016-04-20T10:26:17.444Z,4708
2016-04-20T10:26:27.444Z,4706
2016-04-20T10:26:37.444Z,4750
2016-04-20T10:26:47.444Z,4772
2016-04-20T10:26:57.462Z,4790
2016-04-20T10:27:07.462Z,4794
2016-04-20T10:27:17.462Z,4804
2016-04-20T10:27:27.462Z,4806
2016-04-20T10:27:37.462Z,4810
2016-04-20T10:27:47.462Z,4816
2016-04-20T10:27:57.465Z,4828
2016-04-20T10:28:07.465Z,4840
2016-04-20T10:28:17.465Z,4860
2016-04-20T10:28:27.465Z,4898
2016-04-20T10:28:37.465Z,4960
2016-04-20T10:28:47.480Z,5090
2016-04-20T10:28:57.468Z,5618
2016-04-20T10:29:07.483Z,5672
2016-04-20T10:29:17.483Z,5702
2016-04-20T10:29:27.483Z,5730
2016-04-20T10:29:37.483Z,5758
2016-04-20T10:29:47.483Z,5786
2016-04-20T10:29:57.486Z,5818
2016-04-20T10:30:07.502Z,5834
2016-04-20T10:30:17.486Z,5858
2016-04-20T10:30:27.486Z,5884
2016-04-20T10:30:37.502Z,5904
2016-04-20T10:30:47.502Z,5928
2016-04-20T10:30:57.504Z,5854
2016-04-20T10:31:07.504Z,5750
2016-04-20T10:31:17.504Z,5960
2016-04-20T10:31:27.504Z,6028
2016-04-20T10:31:37.504Z,6106
2016-04-20T10:31:47.504Z,6110
2016-04-20T10:31:57.507Z,6082
2016-04-20T10:32:07.507Z,6050
2016-04-20T10:32:17.523Z,6048
2016-04-20T10:32:27.523Z,6074
2016-04-20T10:32:37.523Z,6122
2016-04-20T10:32:47.523Z,6162
2016-04-20T10:32:57.526Z,6190
2016-04-20T10:33:07.526Z,6224
2016-04-20T10:33:17.541Z,6246
2016-04-20T10:33:27.526Z,6252
2016-04-20T10:33:37.541Z,6240
2016-04-20T10:33:47.541Z,6216
2016-04-20T10:33:57.544Z,6196
2016-04-20T10:34:07.544Z,6178
2016-04-20T10:34:17.544Z,6160
2016-04-20T10:34:27.544Z,6146
2016-04-20T10:34:37.544Z,6112
2016-04-20T10:34:47.544Z,6074
2016-04-20T10:34:57.547Z,6048
2016-04-20T10:35:07.579Z,6010
2016-04-20T10:35:17.563Z,5968
2016-04-20T10:35:27.563Z,5930
2016-04-20T10:35:37.563Z,5892
2016-04-20T10:35:47.563Z,5842
2016-04-20T10:35:57.565Z,5798
2016-04-20T10:36:07.565Z,5748
2016-04-20T10:36:17.565Z,5698
2016-04-20T10:36:27.565Z,5648
2016-04-20T10:36:37.581Z,5610
2016-04-20T10:36:47.581Z,5576
2016-04-20T10:36:57.583Z,5546
2016-04-20T10:37:07.583Z,5524
2016-04-20T10:37:17.583Z,5496
2016-04-20T10:37:27.583Z,5476
2016-04-20T10:37:37.583Z,5448
2016-04-20T10:37:48.286Z,5416
2016-04-20T10:37:57.586Z,5384
2016-04-20T10:38:07.601Z,5356
2016-04-20T10:38:17.601Z,5330